Time;durP1;ratioP1;P1;durP2;ratioP2;P2;SDS_P1;SDS_P2;PMS_P1;PMS_P2;Temp;Humidity;BMP_temperature;BMP_pressure;BME280_temperature;BME280_humidity;BME280_pressure;Samples;Min_cycle;Max_cycle;Signal;HPM_P1;HPM_P2
2023/02/26 00:01:49;;;;;;;18.00;11.10;;;;;;;19.00;33.23;98372.45;108137;1254;72994;-65
2023/02/26 00:04:18;;;;;;;17.20;10.00;;;;;;;19.13;33.12;98366.73;108042;1254;62361;-68
2023/02/26 00:06:52;;;;;;;19.30;10.50;;;;;;;19.21;32.98;98370.08;108220;1252;60418;-64
2023/02/26 00:09:25;;;;;;;21.10;11.70;;;;;;;19.47;32.66;98375.78;108230;1253;74997;-65
2023/02/26 00:11:53;;;;;;;20.20;11.40;;;;;;;19.26;32.92;98379.48;108305;1254;71796;-65
2023/02/26 00:14:22;;;;;;;18.50;11.40;;;;;;;19.64;32.39;98369.77;108308;1254;74253;-66
2023/02/26 00:17:19;;;;;;;18.90;11.00;;;;;;;19.87;31.94;98376.73;108292;1252;61871;-65
2023/02/26 00:19:52;;;;;;;17.10;10.30;;;;;;;19.05;33.01;98388.92;108311;1254;61547;-65
2023/02/26 00:22:20;;;;;;;17.50;11.20;;;;;;;19.26;32.70;98392.17;108318;1252;73796;-65
2023/02/26 00:24:49;;;;;;;19.80;10.20;;;;;;;19.20;32.71;98395.09;108296;1256;70563;-67
2023/02/26 00:27:17;;;;;;;15.70;9.70;;;;;;;19.06;32.90;98394.16;108219;1253;73887;-66
2023/02/26 00:29:46;;;;;;;17.90;10.20;;;;;;;18.91;32.87;98402.16;108244;1252;62440;-64
2023/02/26 00:32:16;;;;;;;17.70;9.60;;;;;;;18.19;34.10;98416.05;108341;1253;60404;-64
2023/02/26 00:34:46;;;;;;;17.90;10.60;;;;;;;17.83;34.61;98425.70;108132;1253;74599;-64
2023/02/26 00:37:44;;;;;;;19.60;10.60;;;;;;;18.01;34.48;98429.13;108033;1254;71303;-65
2023/02/26 00:40:28;;;;;;;16.00;10.40;;;;;;;17.91;34.94;98440.41;108316;1254;73815;-65
2023/02/26 00:42:58;;;;;;;20.70;10.30;;;;;;;18.11;34.72;98444.17;108219;1254;62286;-65
2023/02/26 00:45:27;;;;;;;19.10;10.10;;;;;;;18.56;33.96;98426.25;108282;1252;61553;-64
2023/02/26 00:48:26;;;;;;;22.90;10.60;;;;;;;18.73;33.75;98425.96;108179;1254;74569;-66
2023/02/26 00:50:59;;;;;;;17.90;10.30;;;;;;;19.03;33.18;98414.41;108181;1253;69477;-66
2023/02/26 00:53:35;;;;;;;20.80;10.80;;;;;;;18.79;33.37;98442.85;108293;1254;72794;-66
2023/02/26 00:56:03;;;;;;;18.60;10.40;;;;;;;18.74;33.46;98452.58;108286;1253;62154;-67
2023/02/26 00:58:32;;;;;;;24.50;11.90;;;;;;;18.57;33.59;98450.66;108172;1252;61563;-65
2023/02/26 01:01:02;;;;;;;28.60;13.10;;;;;;;18.30;33.78;98452.67;108264;1252;75050;-66
2023/02/26 01:03:31;;;;;;;26.80;12.00;;;;;;;18.14;33.94;98460.48;108236;1254;71667;-65
2023/02/26 01:06:00;;;;;;;19.30;10.50;;;;;;;18.60;33.16;98465.35;108317;1252;73680;-66
2023/02/26 01:08:33;;;;;;;16.60;9.80;;;;;;;19.07;32.55;98470.48;108241;1253;61857;-65
2023/02/26 01:11:01;;;;;;;17.00;10.10;;;;;;;18.72;32.92;98485.77;108089;1254;136659;-66
2023/02/26 01:16:06;;;;;;;15.90;9.20;;;;;;;11.51;46.12;98491.65;104862;1289;601094;-65
2023/02/26 01:19:07;;;;;;;17.60;9.50;;;;;;;14.31;40.20;98488.81;107203;1266;60848;-66
2023/02/26 01:21:37;;;;;;;16.80;10.00;;;;;;;14.84;39.06;98498.23;107212;1264;61392;-66
2023/02/26 01:24:07;;;;;;;14.60;8.90;;;;;;;15.14;38.74;98495.30;107455;1264;72949;-66
2023/02/26 01:26:35;;;;;;;17.50;9.70;;;;;;;15.22;38.45;98490.06;107362;1264;70555;-66
2023/02/26 01:29:03;;;;;;;15.10;8.50;;;;;;;15.26;38.35;98492.02;107431;1257;185970;-66
2023/02/26 01:32:07;;;;;;;15.30;8.50;;;;;;;15.09;38.76;98494.30;107709;1257;62226;-67
2023/02/26 01:35:08;;;;;;;16.20;9.60;;;;;;;15.46;38.14;98496.36;107803;1257;61293;-65
2023/02/26 01:37:56;;;;;;;16.50;9.50;;;;;;;15.59;37.69;98513.14;107737;1257;73213;-64
2023/02/26 01:40:53;;;;;;;15.20;9.10;;;;;;;15.60;37.88;98525.26;107762;1257;70678;-65
2023/02/26 01:43:27;;;;;;;15.00;8.70;;;;;;;15.66;37.78;98532.04;107577;1258;73595;-65
2023/02/26 01:46:27;;;;;;;16.10;8.50;;;;;;;15.67;37.80;98545.56;107697;1257;61910;-65
2023/02/26 01:48:57;;;;;;;15.60;8.30;;;;;;;15.74;37.80;98550.30;107724;1257;61331;-64
2023/02/26 01:51:43;;;;;;;14.60;7.90;;;;;;;16.02;37.43;98551.17;107836;1257;74240;-66
2023/02/26 01:54:12;;;;;;;16.00;8.90;;;;;;;16.35;36.82;98549.02;107703;1257;71270;-64
2023/02/26 01:56:42;;;;;;;11.70;7.80;;;;;;;16.56;36.34;98546.56;107741;1257;73501;-66
2023/02/26 01:59:10;;;;;;;15.40;8.60;;;;;;;16.42;36.41;98554.11;108197;1253;62379;-66
2023/02/26 02:01:40;;;;;;;14.10;9.10;;;;;;;16.50;36.25;98556.77;108275;1253;60027;-66
2023/02/26 02:04:13;;;;;;;13.90;8.00;;;;;;;16.82;35.75;98563.11;108330;1253;74360;-66
2023/02/26 02:06:42;;;;;;;13.40;8.40;;;;;;;16.46;36.18;98571.84;108154;1253;70151;-64
2023/02/26 02:09:11;;;;;;;12.90;8.00;;;;;;;16.74;35.62;98580.79;108335;1252;72850;-65
2023/02/26 02:11:54;;;;;;;13.30;7.80;;;;;;;16.38;36.13;98580.02;108276;1256;62485;-65
2023/02/26 02:14:28;;;;;;;16.90;7.90;;;;;;;16.66;35.57;98585.01;108188;1253;60095;-66
2023/02/26 02:17:18;;;;;;;13.70;8.30;;;;;;;16.82;35.28;98592.86;108316;1254;74251;-67
2023/02/26 02:20:41;;;;;;;11.30;7.00;;;;;;;16.98;35.05;98597.00;108430;1253;71505;-66
2023/02/26 02:23:45;;;;;;;13.40;7.30;;;;;;;17.19;34.64;98597.20;107925;1259;72572;-66
2023/02/26 02:26:39;;;;;;;14.10;8.00;;;;;;;16.96;34.91;98596.27;108024;1254;59790;-66
2023/02/26 02:29:23;;;;;;;11.20;7.70;;;;;;;16.86;34.88;98600.15;108323;1252;61239;-65
2023/02/26 02:32:05;;;;;;;11.60;7.20;;;;;;;16.83;35.05;98610.66;108202;1252;74138;-66
2023/02/26 02:35:16;;;;;;;13.00;7.40;;;;;;;16.78;35.09;98603.98;108220;1253;70570;-65
2023/02/26 02:37:47;;;;;;;13.60;7.90;;;;;;;17.19;34.31;98609.44;108347;1252;73929;-66
2023/02/26 02:40:29;;;;;;;13.20;7.40;;;;;;;17.19;34.44;98612.38;108138;1254;62120;-66
2023/02/26 02:43:08;;;;;;;11.90;7.40;;;;;;;17.25;34.19;98615.13;108217;1253;59663;-64
2023/02/26 02:46:04;;;;;;;13.30;7.40;;;;;;;17.25;34.18;98620.10;108327;1254;73845;-65
2023/02/26 02:48:46;;;;;;;12.00;7.60;;;;;;;17.33;33.99;98621.15;108374;1254;71356;-65
2023/02/26 02:51:17;;;;;;;;;;;;;;;17.21;34.14;98627.25;108343;1253;73097;-64
2023/02/26 02:54:07;;;;;;;13.70;8.40;;;;;;;17.42;33.72;98638.14;108235;1252;61022;-65
2023/02/26 02:57:12;;;;;;;11.80;7.20;;;;;;;17.35;33.79;98638.41;108172;1254;61232;-65
2023/02/26 02:59:43;;;;;;;13.40;8.50;;;;;;;17.42;33.64;98636.94;108332;1254;74248;-63
2023/02/26 03:02:36;;;;;;;12.40;8.20;;;;;;;17.15;33.85;98635.37;108328;1254;70806;-68
2023/02/26 03:05:05;;;;;;;13.10;7.10;;;;;;;17.11;33.92;98631.45;108322;1253;73487;-67
2023/02/26 03:07:48;;;;;;;9.90;6.70;;;;;;;17.03;34.04;98627.36;108213;1253;62540;-67
2023/02/26 03:10:16;;;;;;;12.80;7.30;;;;;;;17.19;33.79;98622.93;108317;1252;61220;-66
2023/02/26 03:12:44;;;;;;;10.70;6.90;;;;;;;17.20;33.75;98624.30;108330;1252;72346;-66
2023/02/26 03:15:13;;;;;;;10.30;6.80;;;;;;;17.17;33.71;98635.23;108267;1252;71557;-65
2023/02/26 03:18:26;;;;;;;12.00;7.50;;;;;;;17.24;33.60;98645.95;108227;1253;72930;-66
2023/02/26 03:21:01;;;;;;;13.30;7.30;;;;;;;17.54;33.15;98653.80;108007;1253;62218;-65
2023/02/26 03:23:35;;;;;;;12.70;7.60;;;;;;;17.21;33.60;98661.77;108127;1253;59521;-66
2023/02/26 03:26:11;;;;;;;12.70;7.50;;;;;;;16.96;33.98;98665.38;108046;1253;73041;-67
2023/02/26 03:29:18;;;;;;;13.00;7.20;;;;;;;17.18;33.74;98667.36;108137;1253;70264;-66
2023/02/26 03:31:52;;;;;;;13.20;7.20;;;;;;;17.23;33.71;98667.45;107865;1253;72620;-67
2023/02/26 03:34:29;;;;;;;13.90;7.70;;;;;;;17.35;33.41;98669.98;108155;1253;62222;-66
2023/02/26 03:37:06;;;;;;;12.50;7.20;;;;;;;17.16;33.66;98679.59;108087;1253;59785;-65
2023/02/26 03:39:43;;;;;;;10.90;7.00;;;;;;;17.03;33.88;98690.52;108186;1253;73511;-65
2023/02/26 03:42:14;;;;;;;14.10;7.50;;;;;;;17.00;33.99;98694.81;108111;1253;70699;-66
2023/02/26 03:44:56;;;;;;;11.30;6.90;;;;;;;16.93;34.18;98701.27;108059;1253;73665;-68
2023/02/26 03:47:25;;;;;;;13.10;7.20;;;;;;;16.64;34.56;98699.31;108110;1253;62680;-67
2023/02/26 03:50:18;;;;;;;12.30;7.50;;;;;;;17.22;33.71;98696.33;108070;1253;61206;-68
2023/02/26 03:53:37;;;;;;;11.40;6.90;;;;;;;17.34;33.50;98697.72;108157;1253;72652;-66
2023/02/26 03:56:16;;;;;;;11.20;7.40;;;;;;;17.19;33.84;98694.45;108150;1253;71438;-67
2023/02/26 03:59:05;;;;;;;12.80;6.90;;;;;;;17.02;33.92;98699.27;108095;1253;73631;-68
2023/02/26 04:01:46;;;;;;;13.20;7.70;;;;;;;16.85;34.13;98705.29;108040;1253;61366;-65
2023/02/26 04:04:22;;;;;;;12.10;6.90;;;;;;;17.06;33.98;98705.70;108216;1253;60357;-65
2023/02/26 04:06:53;;;;;;;14.10;7.50;;;;;;;16.73;34.34;98712.05;108062;1253;73294;-65
2023/02/26 04:09:21;;;;;;;11.80;7.30;;;;;;;17.37;33.51;98715.08;107950;1253;71575;-66
2023/02/26 04:11:50;;;;;;;14.60;7.80;;;;;;;17.66;33.16;98724.04;108067;1253;73995;-64
2023/02/26 04:14:18;;;;;;;11.00;6.70;;;;;;;17.93;32.61;98731.02;108080;1253;62303;-65
2023/02/26 04:16:46;;;;;;;11.20;7.00;;;;;;;17.60;32.95;98739.98;108018;1253;60763;-66
2023/02/26 04:19:16;;;;;;;12.60;6.90;;;;;;;17.19;33.64;98747.66;108073;1253;74002;-65
2023/02/26 04:21:45;;;;;;;12.40;7.80;;;;;;;17.61;33.03;98747.68;108097;1253;71205;-66
2023/02/26 04:24:15;;;;;;;10.10;6.80;;;;;;;17.21;33.51;98752.58;108068;1255;73640;-63
2023/02/26 04:26:44;;;;;;;10.50;6.40;;;;;;;17.39;33.43;98752.30;108090;1253;62203;-67
2023/02/26 04:29:13;;;;;;;11.20;7.40;;;;;;;18.01;32.55;98754.11;108123;1253;61032;-66
2023/02/26 04:31:41;;;;;;;12.30;6.60;;;;;;;18.08;32.42;98755.98;108079;1253;73906;-61
2023/02/26 04:34:10;;;;;;;14.00;7.90;;;;;;;17.91;32.54;98761.77;108126;1253;71593;-64
2023/02/26 04:36:38;;;;;;;10.60;7.00;;;;;;;17.83;32.66;98765.46;108101;1253;73683;-65
2023/02/26 04:39:09;;;;;;;12.20;7.30;;;;;;;17.68;32.80;98771.93;108111;1253;60150;-65
2023/02/26 04:41:38;;;;;;;11.40;7.00;;;;;;;18.02;32.41;98771.41;108014;1253;61300;-66
2023/02/26 04:44:06;;;;;;;12.80;7.10;;;;;;;17.84;32.67;98775.02;107958;1260;74032;-64
2023/02/26 04:46:36;;;;;;;11.60;7.30;;;;;;;17.70;32.78;98783.53;108083;1253;71181;-65
2023/02/26 04:49:05;;;;;;;11.80;6.70;;;;;;;17.98;32.34;98788.66;108134;1253;72666;-64
2023/02/26 04:51:37;;;;;;;11.50;6.70;;;;;;;17.96;32.29;98794.38;108022;1253;62510;-65
2023/02/26 04:54:07;;;;;;;12.00;7.00;;;;;;;17.87;32.37;98800.14;108065;1253;60258;-66
2023/02/26 04:56:36;;;;;;;9.60;6.80;;;;;;;18.16;32.05;98807.66;108119;1253;73179;-66
2023/02/26 04:59:05;;;;;;;10.90;7.40;;;;;;;17.94;32.31;98810.38;108130;1253;71023;-65
2023/02/26 05:01:34;;;;;;;11.50;6.90;;;;;;;17.76;32.44;98811.72;108137;1253;73425;-66
2023/02/26 05:04:05;;;;;;;13.80;6.80;;;;;;;17.76;32.52;98802.36;108174;1253;62368;-66
2023/02/26 05:06:37;;;;;;;11.90;7.00;;;;;;;17.34;32.89;98804.68;108115;1253;59530;-66
2023/02/26 05:09:05;;;;;;;10.80;6.70;;;;;;;17.65;32.64;98806.63;108200;1253;72747;-69
2023/02/26 05:11:34;;;;;;;13.50;7.00;;;;;;;18.09;32.10;98819.66;108127;1253;70285;-65
2023/02/26 05:14:02;;;;;;;13.30;6.90;;;;;;;17.97;32.12;98825.50;108127;1253;73466;-65
2023/02/26 05:16:31;;;;;;;10.50;6.90;;;;;;;18.01;32.10;98830.16;108112;1253;62027;-66
2023/02/26 05:18:59;;;;;;;10.20;6.70;;;;;;;18.19;31.88;98840.26;108120;1253;61231;-66
2023/02/26 05:21:28;;;;;;;13.20;7.20;;;;;;;18.13;31.96;98852.71;108112;1253;72944;-65
2023/02/26 05:23:56;;;;;;;8.80;5.80;;;;;;;18.17;31.83;98856.56;108141;1253;71582;-64
2023/02/26 05:26:24;;;;;;;12.30;7.40;;;;;;;18.06;32.06;98859.17;108131;1253;73768;-65
2023/02/26 05:28:55;;;;;;;10.10;6.50;;;;;;;18.07;31.95;98859.75;108189;1253;61124;-65
2023/02/26 05:31:25;;;;;;;10.50;7.00;;;;;;;17.86;32.22;98860.19;108179;1253;60064;-65
2023/02/26 05:33:54;;;;;;;;;;;;;;;17.92;32.23;98865.71;108289;1253;72849;-64
2023/02/26 05:36:22;;;;;;;10.80;6.70;;;;;;;18.14;31.86;98866.44;108232;1253;69510;-66
2023/02/26 05:38:52;;;;;;;12.30;7.30;;;;;;;18.09;31.98;98873.50;108230;1253;74161;-65
2023/02/26 05:41:21;;;;;;;14.60;7.80;;;;;;;18.27;31.70;98879.14;108247;1253;62438;-66
2023/02/26 05:43:49;;;;;;;9.70;6.60;;;;;;;18.28;31.67;98881.58;108241;1253;60486;-66
2023/02/26 05:46:18;;;;;;;12.00;7.60;;;;;;;17.99;32.04;98887.29;108251;1253;74914;-63
2023/02/26 05:48:52;;;;;;;12.60;7.90;;;;;;;17.99;32.04;98886.98;108231;1253;71324;-66
2023/02/26 05:51:21;;;;;;;11.90;7.20;;;;;;;18.27;31.66;98889.48;108122;1253;73894;-65
2023/02/26 05:53:50;;;;;;;12.40;8.00;;;;;;;18.19;31.76;98891.38;108184;1253;62178;-66
2023/02/26 05:56:19;;;;;;;10.30;7.00;;;;;;;18.04;31.98;98899.11;108203;1252;61541;-65
2023/02/26 05:58:48;;;;;;;12.20;7.10;;;;;;;17.52;32.74;98907.27;108196;1252;73776;-64
2023/02/26 06:01:17;;;;;;;12.20;7.50;;;;;;;17.31;33.01;98909.59;108176;1253;70317;-66
2023/02/26 06:03:45;;;;;;;13.00;7.60;;;;;;;17.12;33.44;98910.84;108183;1253;73613;-66
2023/02/26 06:06:17;;;;;;;17.00;8.50;;;;;;;16.99;33.59;98911.75;108203;1253;61537;-65
2023/02/26 06:08:46;;;;;;;12.80;7.90;;;;;;;17.08;33.45;98920.38;108219;1253;60906;-66
2023/02/26 06:11:19;;;;;;;17.60;10.10;;;;;;;17.25;33.29;98918.77;108266;1252;74765;-65
2023/02/26 06:13:48;;;;;;;18.90;10.00;;;;;;;17.37;33.04;98920.28;108263;1252;69202;-66
2023/02/26 06:16:16;;;;;;;16.10;9.80;;;;;;;17.47;33.13;98922.68;108250;1251;71160;-67
2023/02/26 06:18:44;;;;;;;21.00;11.00;;;;;;;17.51;33.09;98929.38;108190;1251;60875;-66
2023/02/26 06:21:13;;;;;;;18.30;10.20;;;;;;;17.42;33.09;98934.99;108280;1252;61130;-67
2023/02/26 06:23:42;;;;;;;13.60;8.30;;;;;;;17.38;33.26;98942.02;108215;1255;74710;-67
2023/02/26 06:26:10;;;;;;;15.00;9.10;;;;;;;17.94;32.51;98950.10;108225;1253;70664;-67
2023/02/26 06:28:40;;;;;;;12.80;7.60;;;;;;;18.09;32.25;98952.53;108125;1253;73893;-67
2023/02/26 06:31:09;;;;;;;12.60;7.80;;;;;;;17.73;32.76;98954.30;108094;1253;62226;-66
2023/02/26 06:33:37;;;;;;;12.00;7.40;;;;;;;17.91;32.52;98958.37;108102;1253;60346;-67
2023/02/26 06:36:05;;;;;;;11.70;7.60;;;;;;;17.45;33.22;98965.07;108098;1253;75093;-68
2023/02/26 06:38:34;;;;;;;12.90;8.10;;;;;;;17.26;33.54;98970.89;108089;1253;71613;-65
2023/02/26 06:41:03;;;;;;;11.90;7.20;;;;;;;17.60;33.05;98977.60;108063;1254;73932;-66
2023/02/26 06:43:31;;;;;;;11.50;7.20;;;;;;;17.61;33.21;98983.70;108065;1253;62488;-66
2023/02/26 06:46:00;;;;;;;13.70;7.70;;;;;;;18.02;32.61;98991.65;108152;1253;61520;-67
2023/02/26 06:48:29;;;;;;;12.60;7.70;;;;;;;17.88;32.68;98997.64;108060;1253;74886;-67
2023/02/26 06:50:57;;;;;;;15.20;7.90;;;;;;;17.98;32.77;99002.27;108063;1253;71213;-66
2023/02/26 06:53:25;;;;;;;11.90;7.80;;;;;;;17.88;32.58;99008.11;108040;1253;73969;-68
2023/02/26 06:55:53;;;;;;;15.10;7.50;;;;;;;17.95;32.88;99021.84;108055;1253;62416;-67
2023/02/26 06:58:22;;;;;;;13.00;8.10;;;;;;;18.24;32.33;99019.45;108016;1253;61579;-67
2023/02/26 07:00:51;;;;;;;12.30;7.50;;;;;;;17.92;32.69;99024.58;107977;1255;74726;-67
2023/02/26 07:03:19;;;;;;;10.50;7.20;;;;;;;17.92;32.84;99025.70;108034;1253;71234;-68
2023/02/26 07:05:47;;;;;;;13.10;7.90;;;;;;;17.89;32.82;99031.45;108073;1253;73714;-67
2023/02/26 07:08:18;;;;;;;11.20;7.30;;;;;;;17.90;32.99;99034.74;108079;1253;61429;-67
2023/02/26 07:10:48;;;;;;;11.90;7.40;;;;;;;17.74;33.15;99042.28;108113;1253;60397;-67
2023/02/26 07:13:17;;;;;;;16.10;9.10;;;;;;;18.35;32.38;99045.49;108119;1253;75058;-67
2023/02/26 07:15:45;;;;;;;11.60;7.30;;;;;;;18.39;32.47;99045.42;108061;1253;71710;-67
2023/02/26 07:18:14;;;;;;;15.90;8.10;;;;;;;18.46;32.10;99049.89;108096;1253;73616;-67
2023/02/26 07:20:43;;;;;;;14.10;8.00;;;;;;;18.77;31.75;99052.81;108097;1253;61317;-68
2023/02/26 07:23:12;;;;;;;13.50;7.80;;;;;;;19.00;31.64;99053.52;108119;1253;61274;-67
2023/02/26 07:25:40;;;;;;;14.30;8.60;;;;;;;19.31;31.23;99053.97;108140;1253;74062;-67
2023/02/26 07:28:09;;;;;;;16.20;8.10;;;;;;;19.30;31.23;99058.48;108179;1253;72130;-67
2023/02/26 07:30:40;;;;;;;17.70;9.00;;;;;;;19.28;31.15;99057.02;108209;1255;73102;-67
2023/02/26 07:33:09;;;;;;;15.50;9.20;;;;;;;18.88;31.61;99058.99;108121;1253;61910;-68
2023/02/26 07:35:40;;;;;;;14.00;8.70;;;;;;;19.25;31.40;99067.05;108202;1253;60473;-67
2023/02/26 07:38:09;;;;;;;15.00;9.20;;;;;;;19.32;31.19;99068.22;108176;1253;74794;-66
2023/02/26 07:40:37;;;;;;;15.40;8.60;;;;;;;19.49;31.03;99069.70;108193;1253;71595;-68
2023/02/26 07:43:05;;;;;;;11.90;7.80;;;;;;;19.12;31.43;99071.27;108237;1253;73498;-67
2023/02/26 07:45:34;;;;;;;16.00;9.00;;;;;;;18.89;31.86;99078.83;108342;1253;62340;-67
2023/02/26 07:48:03;;;;;;;17.20;8.40;;;;;;;19.32;31.52;99079.48;108327;1252;60459;-67
2023/02/26 07:50:33;;;;;;;14.30;9.00;;;;;;;19.44;31.25;99082.31;108342;1252;75029;-67
2023/02/26 07:53:02;;;;;;;14.90;9.10;;;;;;;19.41;31.08;99084.14;108269;1253;70339;-67
2023/02/26 07:55:33;;;;;;;13.00;8.10;;;;;;;19.75;30.84;99079.48;108219;1253;71721;-65
2023/02/26 07:58:01;;;;;;;14.20;8.40;;;;;;;19.62;30.75;99081.92;108145;1253;61358;-65
2023/02/26 08:00:30;;;;;;;14.80;9.10;;;;;;;19.45;31.06;99083.41;108242;1253;60161;-67
2023/02/26 08:02:59;;;;;;;17.50;9.70;;;;;;;19.67;30.72;99087.89;108261;1253;74578;-67
2023/02/26 08:05:27;;;;;;;14.50;8.70;;;;;;;19.45;30.89;99092.32;108197;1253;71678;-67
2023/02/26 08:07:57;;;;;;;13.60;8.70;;;;;;;19.38;31.11;99093.66;108207;1253;73924;-68
2023/02/26 08:10:27;;;;;;;19.60;10.30;;;;;;;19.30;31.13;99093.33;108170;1252;61867;-67
2023/02/26 08:12:55;;;;;;;15.40;9.10;;;;;;;19.42;31.03;99096.76;108250;1253;60442;-67
2023/02/26 08:15:31;;;;;;;13.80;8.60;;;;;;;19.28;31.36;99102.94;108210;1253;74599;-67
2023/02/26 08:18:00;;;;;;;15.50;9.30;;;;;;;19.79;30.68;99102.67;108209;1252;70320;-67
2023/02/26 08:20:28;;;;;;;13.30;7.80;;;;;;;19.82;30.73;99102.55;108202;1253;73783;-68
2023/02/26 08:22:57;;;;;;;12.70;8.00;;;;;;;19.69;30.71;99099.25;108129;1252;62044;-67
2023/02/26 08:25:25;;;;;;;14.90;8.70;;;;;;;19.55;30.71;99098.61;108193;1253;60304;-67
2023/02/26 08:27:54;;;;;;;14.50;8.90;;;;;;;19.69;30.84;99097.00;108250;1253;74082;-67
2023/02/26 08:30:23;;;;;;;15.20;9.30;;;;;;;20.17;30.32;99092.59;108136;1253;71522;-67
2023/02/26 08:32:52;;;;;;;13.40;8.90;;;;;;;20.35;30.23;99095.17;108087;1253;73576;-68
2023/02/26 08:35:20;;;;;;;15.40;8.30;;;;;;;20.52;30.07;99092.31;108112;1253;60072;-66
2023/02/26 08:37:53;;;;;;;13.60;9.20;;;;;;;20.66;29.70;99090.60;108107;1253;61860;-68
2023/02/26 08:40:21;;;;;;;13.20;8.40;;;;;;;20.66;29.74;99096.70;108202;1253;75039;-67
2023/02/26 08:42:49;;;;;;;13.10;8.50;;;;;;;20.31;29.97;99108.83;108105;1253;69519;-67
2023/02/26 08:45:17;;;;;;;14.40;9.10;;;;;;;20.27;29.76;99115.30;108067;1253;73707;-66
2023/02/26 08:47:46;;;;;;;14.30;8.80;;;;;;;20.23;29.99;99118.86;108024;1253;61599;-67
2023/02/26 08:50:24;;;;;;;17.00;9.50;;;;;;;20.32;29.76;99121.66;108100;1253;61650;-68
2023/02/26 08:52:53;;;;;;;13.60;8.80;;;;;;;20.62;29.71;99126.83;108124;1253;73300;-68
2023/02/26 08:55:21;;;;;;;14.40;8.30;;;;;;;20.42;29.66;99135.52;108091;1253;71280;-67
2023/02/26 08:57:50;;;;;;;16.50;9.40;;;;;;;20.41;29.68;99138.59;108107;1253;72435;-68
2023/02/26 09:00:18;;;;;;;12.50;8.00;;;;;;;20.70;29.55;99144.25;108109;1253;62472;-68
2023/02/26 09:02:46;;;;;;;11.50;7.80;;;;;;;20.72;29.48;99142.50;108185;1253;61397;-67
2023/02/26 09:05:16;;;;;;;13.90;8.70;;;;;;;21.20;28.96;99143.83;108235;1253;75133;-67
2023/02/26 09:07:44;;;;;;;12.60;8.00;;;;;;;21.14;29.03;99143.33;108177;1253;71264;-67
2023/02/26 09:10:13;;;;;;;13.10;8.30;;;;;;;21.35;28.76;99148.24;108271;1253;72367;-67
2023/02/26 09:12:42;;;;;;;13.60;8.60;;;;;;;21.83;28.34;99154.77;108280;1253;60840;-66
2023/02/26 09:15:13;;;;;;;13.40;8.00;;;;;;;21.60;28.05;99160.06;108170;1253;61078;-66
2023/02/26 09:17:44;;;;;;;12.80;8.70;;;;;;;21.63;27.81;99165.75;108167;1252;74310;-68
2023/02/26 09:20:13;;;;;;;12.10;8.00;;;;;;;21.75;27.92;99171.17;108218;1252;70537;-68
2023/02/26 09:22:44;;;;;;;12.20;8.40;;;;;;;21.92;27.57;99171.58;108184;1254;73332;-68
2023/02/26 09:25:12;;;;;;;16.70;9.60;;;;;;;21.97;27.06;99178.05;108206;1252;60957;-69
2023/02/26 09:27:41;;;;;;;14.30;8.40;;;;;;;21.44;27.81;99179.69;108237;1253;61206;-68
2023/02/26 09:30:10;;;;;;;14.50;9.40;;;;;;;21.57;27.51;99182.02;108189;1252;74733;-67
2023/02/26 09:32:38;;;;;;;14.20;8.40;;;;;;;21.13;27.99;99191.17;108213;1253;70154;-67
2023/02/26 09:35:08;;;;;;;15.30;9.10;;;;;;;21.00;28.35;99200.92;108174;1252;72438;-67
2023/02/26 09:37:37;;;;;;;14.20;9.10;;;;;;;21.17;28.25;99202.29;108190;1253;62108;-68
2023/02/26 09:40:06;;;;;;;16.50;8.60;;;;;;;21.51;28.06;99208.65;108186;1253;60790;-69
2023/02/26 09:42:48;;;;;;;13.20;8.50;;;;;;;21.76;27.76;99208.52;108241;1253;72570;-67
2023/02/26 09:45:25;;;;;;;14.80;9.00;;;;;;;21.71;27.40;99209.23;108203;1252;70739;-67
2023/02/26 09:47:54;;;;;;;11.80;8.10;;;;;;;21.69;27.53;99212.27;108241;1253;73310;-67
2023/02/26 09:50:25;;;;;;;12.50;8.00;;;;;;;22.11;27.09;99210.05;108203;1253;60333;-67
2023/02/26 09:52:55;;;;;;;12.40;8.30;;;;;;;22.71;26.67;99208.02;108180;1253;61471;-68
2023/02/26 09:55:44;;;;;;;14.50;8.10;;;;;;;22.95;26.58;99210.18;108134;1257;74078;-66
2023/02/26 09:58:23;;;;;;;13.40;8.80;;;;;;;22.85;26.48;99206.92;108225;1253;71497;-67
2023/02/26 10:00:57;;;;;;;12.60;8.10;;;;;;;22.96;26.09;99209.05;108226;1252;73491;-68
2023/02/26 10:03:38;;;;;;;11.80;8.30;;;;;;;22.69;26.16;99209.46;108179;1253;60210;-67
2023/02/26 10:06:29;;;;;;;13.50;8.40;;;;;;;23.03;25.87;99207.41;108259;1253;59980;-66
2023/02/26 10:09:16;;;;;;;13.90;8.70;;;;;;;23.38;25.34;99201.65;108237;1253;74332;-67
2023/02/26 10:11:59;;;;;;;23.10;12.40;;;;;;;23.55;25.21;99202.14;108250;1253;70481;-67
2023/02/26 10:14:34;;;;;;;14.10;9.30;;;;;;;23.54;25.07;99202.96;108205;1253;71333;-67
2023/02/26 10:17:07;;;;;;;15.10;9.90;;;;;;;23.87;24.80;99193.90;108201;1253;60299;-68
2023/02/26 10:19:38;;;;;;;15.70;10.50;;;;;;;24.10;24.64;99195.20;108194;1258;60448;-68
2023/02/26 10:22:16;;;;;;;14.10;9.30;;;;;;;24.09;24.45;99191.55;108197;1253;74183;-67
2023/02/26 10:24:47;;;;;;;12.90;8.20;;;;;;;24.19;24.19;99192.65;108254;1253;71698;-68
2023/02/26 10:27:34;;;;;;;10.70;7.70;;;;;;;24.06;24.53;99188.63;108164;1253;73931;-67
2023/02/26 10:30:07;;;;;;;16.90;8.00;;;;;;;24.06;24.87;99185.81;108432;1253;60322;-67
2023/02/26 10:33:13;;;;;;;10.20;7.00;;;;;;;24.07;24.40;99192.67;108267;1253;61154;-66
2023/02/26 10:35:52;;;;;;;11.00;7.00;;;;;;;24.21;23.98;99199.04;108119;1253;72668;-67
2023/02/26 10:38:24;;;;;;;12.80;8.20;;;;;;;24.51;23.77;99205.29;108177;1253;71040;-67
2023/02/26 10:40:58;;;;;;;9.40;7.10;;;;;;;24.74;23.28;99210.45;108000;1253;72710;-67
2023/02/26 10:43:33;;;;;;;16.50;8.50;;;;;;;24.84;23.37;99210.39;108044;1253;61356;-65
2023/02/26 10:46:23;;;;;;;13.30;7.80;;;;;;;24.39;23.69;99212.52;108169;1253;61220;-64
2023/02/26 10:49:04;;;;;;;11.50;7.30;;;;;;;24.70;23.32;99215.07;108147;1253;74001;-68
2023/02/26 10:51:37;;;;;;;13.80;8.40;;;;;;;24.43;23.61;99219.10;108211;1257;71569;-67
2023/02/26 10:54:14;;;;;;;11.90;7.50;;;;;;;24.49;23.59;99219.73;108110;1253;71863;-66
2023/02/26 10:56:43;;;;;;;12.90;7.70;;;;;;;24.72;23.51;99223.69;108143;1253;61298;-66
2023/02/26 10:59:14;;;;;;;10.70;6.90;;;;;;;25.00;23.13;99228.66;108148;1253;61299;-66
2023/02/26 11:01:43;;;;;;;13.10;8.40;;;;;;;24.95;23.02;99228.23;108144;1257;74123;-66
2023/02/26 11:04:14;;;;;;;10.30;7.00;;;;;;;25.05;22.87;99228.98;108146;1253;70041;-67
2023/02/26 11:06:57;;;;;;;11.70;7.60;;;;;;;25.17;22.84;99231.55;108142;1253;73028;-67
2023/02/26 11:09:34;;;;;;;12.80;7.40;;;;;;;25.53;22.25;99230.38;108101;1253;61584;-68
2023/02/26 11:12:18;;;;;;;9.90;7.10;;;;;;;25.44;22.39;99237.35;108139;1253;60331;-66
2023/02/26 11:14:47;;;;;;;10.50;6.90;;;;;;;25.57;22.26;99238.38;108151;1253;72855;-67
2023/02/26 11:17:26;;;;;;;11.60;7.00;;;;;;;24.94;22.41;99243.98;108178;1253;69643;-67
2023/02/26 11:20:01;;;;;;;9.80;7.00;;;;;;;24.36;22.92;99248.17;108134;1257;73690;-66
2023/02/26 11:22:32;;;;;;;12.20;8.20;;;;;;;24.24;23.04;99249.67;108031;1253;60374;-68
2023/02/26 11:25:00;;;;;;;11.50;7.70;;;;;;;24.12;23.22;99259.17;108222;1253;61309;-67
2023/02/26 11:27:35;;;;;;;10.50;7.60;;;;;;;23.68;23.77;99259.75;107962;1258;74541;-67
2023/02/26 11:30:17;;;;;;;10.80;7.30;;;;;;;24.02;23.43;99260.44;108114;1253;70685;-67
2023/02/26 11:32:50;;;;;;;12.90;7.10;;;;;;;24.18;23.01;99268.30;108136;1253;73912;-67
2023/02/26 11:35:23;;;;;;;14.80;7.60;;;;;;;24.00;23.24;99270.18;108124;1253;60391;-67
2023/02/26 11:37:54;;;;;;;13.00;7.60;;;;;;;24.46;22.93;99265.64;108121;1253;60997;-66
2023/02/26 11:40:41;;;;;;;10.80;6.60;;;;;;;24.19;23.09;99275.70;108126;1257;73988;-67
2023/02/26 11:43:12;;;;;;;10.50;6.50;;;;;;;23.92;23.06;99283.20;108101;1253;70420;-67
2023/02/26 11:45:42;;;;;;;11.70;7.20;;;;;;;24.04;23.21;99286.59;108107;1253;73419;-67
2023/02/26 11:48:15;;;;;;;12.20;6.70;;;;;;;24.31;23.21;99284.80;107965;1253;61530;-67
2023/02/26 11:50:47;;;;;;;12.50;7.50;;;;;;;24.27;23.25;99286.87;107998;1253;60310;-67